createdAt,value
2019-04-27T00:01:23.296Z,37.97
2019-04-27T00:04:16.198Z,40.47
2019-04-27T00:06:47.262Z,34.60
2019-04-27T00:09:50.233Z,30.63
2019-04-27T00:12:22.400Z,30.57
2019-04-27T00:14:54.515Z,29.90
2019-04-27T00:17:58.525Z,30.30
2019-04-27T00:20:53.573Z,34.47
2019-04-27T00:23:26.637Z,31.90
2019-04-27T00:25:58.318Z,27.57
2019-04-27T00:28:29.842Z,30.00
2019-04-27T00:31:03.155Z,37.90
2019-04-27T00:33:34.543Z,33.70
2019-04-27T00:36:13.824Z,30.77
2019-04-27T00:39:09.428Z,32.47
2019-04-27T00:41:43.047Z,32.23
2019-04-27T00:44:15.148Z,31.87
2019-04-27T00:46:46.631Z,41.73
2019-04-27T00:49:20.242Z,34.83
2019-04-27T00:51:53.683Z,29.50
2019-04-27T00:54:25.301Z,27.73
2019-04-27T00:57:28.072Z,30.20
2019-04-27T01:00:17.861Z,31.03
2019-04-27T01:02:56.173Z,30.90
2019-04-27T01:05:28.518Z,29.67
2019-04-27T01:08:01.002Z,30.30
2019-04-27T01:10:33.505Z,32.77
2019-04-27T01:13:08.438Z,27.60
2019-04-27T01:15:39.817Z,28.87
2019-04-27T01:18:14.950Z,27.90
2019-04-27T01:20:45.314Z,36.50
2019-04-27T01:23:16.755Z,29.60
2019-04-27T01:26:05.363Z,31.23
2019-04-27T01:28:42.349Z,31.17
2019-04-27T01:31:14.779Z,27.63
2019-04-27T01:33:48.787Z,28.10
2019-04-27T01:36:20.247Z,31.73
2019-04-27T01:38:51.981Z,23.97
2019-04-27T01:41:23.977Z,28.90
2019-04-27T01:43:55.425Z,26.30
2019-04-27T01:46:26.833Z,30.17
2019-04-27T01:48:59.100Z,24.90
2019-04-27T01:51:30.730Z,26.33
2019-04-27T01:54:02.546Z,31.03
2019-04-27T01:56:33.976Z,29.40
2019-04-27T01:59:05.686Z,30.90
2019-04-27T02:01:58.798Z,30.80
2019-04-27T02:04:46.152Z,26.43
2019-04-27T02:07:19.173Z,32.83
2019-04-27T02:09:50.602Z,31.53
2019-04-27T02:12:22.121Z,27.73
2019-04-27T02:14:54.121Z,28.67
2019-04-27T02:17:25.873Z,34.17
2019-04-27T02:19:57.279Z,32.27
2019-04-27T02:22:29.700Z,32.10
2019-04-27T02:25:02.175Z,26.17
2019-04-27T02:27:35.190Z,33.50
2019-04-27T02:30:35.193Z,30.83
2019-04-27T02:33:40.590Z,34.00
2019-04-27T02:36:15.156Z,32.13
2019-04-27T02:38:46.066Z,28.60
2019-04-27T02:41:19.885Z,32.93
2019-04-27T02:44:16.074Z,25.90
2019-04-27T02:46:49.922Z,32.17
2019-04-27T02:49:20.548Z,28.20
2019-04-27T02:52:25.789Z,28.60
2019-04-27T02:54:59.096Z,28.80
2019-04-27T02:57:30.481Z,28.37
2019-04-27T03:00:03.595Z,27.60
2019-04-27T03:02:45.907Z,25.10
2019-04-27T03:05:24.853Z,25.90
2019-04-27T03:07:59.562Z,27.80
2019-04-27T03:10:31.982Z,30.87
2019-04-27T03:13:37.429Z,25.57
2019-04-27T03:16:26.049Z,27.10
2019-04-27T03:19:31.603Z,29.87
2019-04-27T03:22:24.318Z,29.27
2019-04-27T03:25:30.317Z,30.37
2019-04-27T03:28:10.696Z,30.17
2019-04-27T03:30:43.579Z,26.83
2019-04-27T03:33:15.116Z,30.63
2019-04-27T03:35:46.781Z,30.30
2019-04-27T03:38:19.742Z,28.87
2019-04-27T03:40:53.024Z,29.63
2019-04-27T03:43:25.891Z,26.23
2019-04-27T03:46:00.194Z,29.33
2019-04-27T03:48:30.764Z,30.20
2019-04-27T03:51:21.132Z,23.97
2019-04-27T03:54:10.703Z,25.37
2019-04-27T03:56:46.486Z,33.87
2019-04-27T03:59:40.638Z,24.40
2019-04-27T04:02:13.384Z,25.83
2019-04-27T04:04:46.404Z,28.80
2019-04-27T04:07:19.704Z,26.00
2019-04-27T04:09:51.709Z,24.05
2019-04-27T04:12:40.018Z,24.55
2019-04-27T04:15:16.378Z,27.32
2019-04-27T04:17:49.616Z,23.47
2019-04-27T04:20:21.198Z,23.95
2019-04-27T04:22:52.662Z,23.87
2019-04-27T04:25:24.921Z,26.90
2019-04-27T04:27:56.517Z,23.83
2019-04-27T04:30:30.263Z,23.60
2019-04-27T04:33:01.002Z,27.80
2019-04-27T04:35:33.271Z,27.77
2019-04-27T04:38:04.946Z,28.87
2019-04-27T04:40:44.794Z,23.52
2019-04-27T04:43:22.131Z,30.10
2019-04-27T04:46:13.333Z,21.95
2019-04-27T04:48:44.811Z,25.97
2019-04-27T04:51:16.264Z,23.30
2019-04-27T04:53:48.847Z,31.57
2019-04-27T04:56:22.134Z,28.83
2019-04-27T04:58:53.533Z,25.57
2019-04-27T05:01:24.957Z,22.58
2019-04-27T05:03:56.396Z,25.55
2019-04-27T05:06:29.259Z,27.98
2019-04-27T05:09:00.853Z,27.62
2019-04-27T05:11:34.703Z,29.18
2019-04-27T05:14:06.352Z,23.25
2019-04-27T05:16:39.099Z,18.50
2019-04-27T05:19:11.338Z,23.52
2019-04-27T05:21:43.522Z,19.35
2019-04-27T05:24:15.365Z,26.95
2019-04-27T05:26:48.619Z,28.35
2019-04-27T05:29:20.178Z,21.73
2019-04-27T05:31:51.606Z,23.80
2019-04-27T05:34:23.210Z,30.10
2019-04-27T05:36:54.636Z,27.15
2019-04-27T05:39:30.516Z,25.37
2019-04-27T05:42:02.049Z,18.40
2019-04-27T05:45:03.399Z,25.85
2019-04-27T05:47:58.963Z,24.70
2019-04-27T05:50:38.828Z,21.77
2019-04-27T05:53:04.729Z,23.85
2019-04-27T05:55:39.278Z,24.50
2019-04-27T05:58:11.727Z,27.05
2019-04-27T06:00:43.163Z,23.67
2019-04-27T06:03:15.441Z,31.33
2019-04-27T06:05:46.907Z,28.77
2019-04-27T06:08:21.133Z,27.77
2019-04-27T06:10:52.588Z,31.37
2019-04-27T06:13:24.820Z,31.52
2019-04-27T06:15:56.746Z,23.83
2019-04-27T06:18:29.376Z,25.08
2019-04-27T06:21:01.370Z,27.55
2019-04-27T06:23:32.878Z,27.27
2019-04-27T06:26:04.580Z,29.60
2019-04-27T06:28:39.605Z,29.77
2019-04-27T06:31:10.860Z,29.92
2019-04-27T06:33:42.565Z,32.78
2019-04-27T06:36:14.425Z,32.38
2019-04-27T06:38:46.423Z,36.28
2019-04-27T06:41:18.940Z,26.12
2019-04-27T06:43:50.904Z,27.00
2019-04-27T06:46:23.407Z,31.45
2019-04-27T06:48:55.163Z,25.75
2019-04-27T06:51:28.700Z,30.32
2019-04-27T06:54:00.320Z,23.42
2019-04-27T06:56:31.828Z,30.15
2019-04-27T06:59:03.267Z,28.70
2019-04-27T07:01:35.140Z,25.57
2019-04-27T07:04:08.851Z,24.98
2019-04-27T07:06:52.771Z,34.23
2019-04-27T07:09:13.148Z,28.30
2019-04-27T07:11:45.485Z,37.30
2019-04-27T07:14:19.719Z,24.60
2019-04-27T07:16:52.650Z,25.25
2019-04-27T07:19:25.028Z,29.65
2019-04-27T07:21:56.504Z,29.45
2019-04-27T07:24:29.265Z,34.45
2019-04-27T07:27:00.805Z,34.30
2019-04-27T07:29:32.274Z,31.82
2019-04-27T07:32:03.755Z,30.90
2019-04-27T07:34:35.287Z,30.02
2019-04-27T07:37:06.719Z,29.87
2019-04-27T07:39:39.127Z,30.27
2019-04-27T07:42:11.750Z,35.48
2019-04-27T07:44:50.671Z,23.30
2019-04-27T07:47:26.093Z,28.83
2019-04-27T07:49:59.303Z,36.65
2019-04-27T07:52:30.831Z,26.93
2019-04-27T07:55:03.212Z,41.05
2019-04-27T07:57:36.251Z,27.42
2019-04-27T08:00:09.367Z,31.17
2019-04-27T08:02:41.123Z,35.17
2019-04-27T08:05:14.387Z,30.65
2019-04-27T08:07:47.004Z,33.78
2019-04-27T08:10:19.461Z,30.92
2019-04-27T08:12:51.169Z,31.95
2019-04-27T08:15:22.725Z,32.33
2019-04-27T08:17:55.301Z,28.83
2019-04-27T08:20:26.787Z,34.20
2019-04-27T08:22:59.853Z,28.60
2019-04-27T08:25:32.752Z,29.50
2019-04-27T08:28:15.485Z,38.73
2019-04-27T08:31:05.902Z,27.27
2019-04-27T08:33:38.938Z,29.15
2019-04-27T08:36:10.714Z,28.17
2019-04-27T08:38:42.472Z,40.08
2019-04-27T08:41:13.876Z,32.93
2019-04-27T08:43:45.479Z,27.37
2019-04-27T08:46:18.647Z,35.52
2019-04-27T08:48:50.163Z,38.42
2019-04-27T08:51:22.435Z,34.08
2019-04-27T08:53:54.037Z,32.40
2019-04-27T08:56:26.827Z,33.30
2019-04-27T08:58:59.491Z,28.95
2019-04-27T09:01:31.907Z,37.80
2019-04-27T09:04:03.573Z,33.85
2019-04-27T09:06:38.116Z,34.05
2019-04-27T09:09:15.847Z,32.83
2019-04-27T09:12:02.464Z,34.10
2019-04-27T09:14:40.801Z,33.23
2019-04-27T09:17:34.080Z,40.85
2019-04-27T09:20:21.004Z,40.80
2019-04-27T09:22:52.671Z,34.33
2019-04-27T09:25:24.771Z,41.33
2019-04-27T09:27:56.391Z,40.88
2019-04-27T09:30:29.624Z,42.80
2019-04-27T09:33:01.774Z,42.60
2019-04-27T09:35:35.600Z,39.88
2019-04-27T09:38:07.459Z,40.25
2019-04-27T09:40:38.930Z,52.17
2019-04-27T09:43:10.449Z,36.98
2019-04-27T09:45:41.981Z,43.00
2019-04-27T09:48:13.580Z,43.58
2019-04-27T09:50:46.642Z,42.75
2019-04-27T09:53:18.495Z,38.60
2019-04-27T09:55:50.610Z,39.33
2019-04-27T09:58:22.152Z,36.70
2019-04-27T10:00:53.751Z,38.05
2019-04-27T10:03:26.610Z,42.38
2019-04-27T10:06:00.012Z,42.43
2019-04-27T10:08:32.958Z,48.15
2019-04-27T10:11:05.931Z,45.65
2019-04-27T10:13:39.057Z,37.45
2019-04-27T10:16:10.539Z,46.33
2019-04-27T10:18:41.991Z,45.40
2019-04-27T10:21:13.716Z,52.75
2019-04-27T10:23:47.053Z,46.98
2019-04-27T10:26:18.266Z,50.52
2019-04-27T10:28:49.758Z,43.90
2019-04-27T10:31:21.278Z,44.73
2019-04-27T10:33:52.763Z,44.03
2019-04-27T10:36:42.263Z,51.02
2019-04-27T10:39:16.907Z,51.60
2019-04-27T10:41:48.713Z,46.10
2019-04-27T10:44:20.178Z,45.17
2019-04-27T10:46:52.139Z,48.60
2019-04-27T10:49:23.803Z,52.23
2019-04-27T10:51:55.795Z,49.25
2019-04-27T10:54:28.305Z,45.73
2019-04-27T10:56:59.708Z,46.40
2019-04-27T10:59:31.887Z,50.28
2019-04-27T11:02:03.393Z,44.13
2019-04-27T11:04:58.983Z,47.35
2019-04-27T11:07:36.301Z,51.55
2019-04-27T11:10:09.186Z,51.28
2019-04-27T11:12:40.671Z,54.48
2019-04-27T11:15:13.206Z,49.08
2019-04-27T11:17:47.509Z,45.23
2019-04-27T11:20:20.570Z,47.43
2019-04-27T11:22:51.994Z,52.73
2019-04-27T11:25:23.935Z,51.63
2019-04-27T11:27:57.849Z,45.55
2019-04-27T11:30:29.441Z,47.25
2019-04-27T11:33:00.919Z,48.35
2019-04-27T11:36:00.238Z,49.33
2019-04-27T11:38:31.751Z,54.08
2019-04-27T11:41:03.438Z,44.40
2019-04-27T11:43:36.175Z,50.48
2019-04-27T11:46:07.795Z,47.67
2019-04-27T11:48:39.306Z,49.60
2019-04-27T11:51:11.230Z,43.08
2019-04-27T11:53:42.782Z,54.88
2019-04-27T11:56:15.724Z,52.20
2019-04-27T11:58:48.851Z,45.43
2019-04-27T12:01:20.713Z,44.77
2019-04-27T12:03:52.424Z,50.08
2019-04-27T12:06:25.855Z,45.43
2019-04-27T12:08:59.357Z,46.15
2019-04-27T12:11:30.805Z,46.58
2019-04-27T12:14:02.287Z,47.95
2019-04-27T12:16:36.034Z,46.68
2019-04-27T12:19:07.834Z,43.78
2019-04-27T12:21:39.319Z,50.50
2019-04-27T12:24:10.834Z,43.83
2019-04-27T12:27:01.386Z,50.30
2019-04-27T12:29:50.398Z,47.50
2019-04-27T12:32:22.346Z,48.40
2019-04-27T12:34:53.842Z,44.33
2019-04-27T12:37:26.876Z,46.63
2019-04-27T12:39:58.583Z,43.23
2019-04-27T12:42:30.068Z,46.23
2019-04-27T12:45:02.855Z,48.02
2019-04-27T12:47:36.940Z,43.98
2019-04-27T12:50:10.859Z,45.75
2019-04-27T12:52:45.942Z,47.98
2019-04-27T12:55:37.341Z,46.75
2019-04-27T12:58:26.423Z,49.38
2019-04-27T13:00:58.539Z,46.53
2019-04-27T13:03:29.961Z,32.15
2019-04-27T13:06:01.403Z,28.50
2019-04-27T13:08:32.857Z,26.62
2019-04-27T13:11:05.858Z,25.02
2019-04-27T13:13:37.613Z,23.47
2019-04-27T13:16:09.086Z,20.00
2019-04-27T13:18:40.613Z,22.48
2019-04-27T13:21:12.201Z,19.23
2019-04-27T13:23:45.786Z,21.62
2019-04-27T13:26:17.168Z,27.22
2019-04-27T13:28:48.653Z,20.95
2019-04-27T13:31:20.141Z,25.40
2019-04-27T13:33:51.710Z,24.18
2019-04-27T13:36:23.256Z,22.73
2019-04-27T13:38:55.978Z,21.17
2019-04-27T13:41:32.650Z,28.30
2019-04-27T13:44:00.762Z,23.18
2019-04-27T13:46:55.879Z,20.05
2019-04-27T13:49:38.731Z,19.02
2019-04-27T13:52:19.271Z,23.20
2019-04-27T13:54:50.760Z,20.95
2019-04-27T13:57:23.392Z,21.62
2019-04-27T13:59:56.946Z,19.55
2019-04-27T14:02:32.247Z,36.30
2019-04-27T14:05:01.761Z,24.25
2019-04-27T14:07:33.210Z,28.23
2019-04-27T14:10:05.117Z,30.32
2019-04-27T14:12:38.449Z,25.97
2019-04-27T14:15:11.715Z,23.90
2019-04-27T14:17:43.984Z,18.90
2019-04-27T14:20:15.415Z,18.62
2019-04-27T14:22:46.870Z,17.73
2019-04-27T14:25:18.552Z,19.65
2019-04-27T14:27:50.499Z,21.00
2019-04-27T14:30:23.004Z,22.05
2019-04-27T14:32:55.190Z,24.15
2019-04-27T14:35:28.320Z,22.62
2019-04-27T14:38:00.218Z,20.85
2019-04-27T14:40:31.780Z,17.65
2019-04-27T14:43:03.341Z,21.10
2019-04-27T14:45:34.958Z,18.32
2019-04-27T14:48:08.296Z,20.57
2019-04-27T14:50:40.515Z,23.77
2019-04-27T14:53:12.901Z,22.02
2019-04-27T14:55:44.454Z,20.48
2019-04-27T14:58:19.335Z,19.62
2019-04-27T15:00:51.467Z,24.85
2019-04-27T15:03:26.518Z,21.35
2019-04-27T15:05:58.190Z,24.02
2019-04-27T15:08:30.914Z,18.52
2019-04-27T15:11:02.352Z,19.60
2019-04-27T15:13:37.852Z,25.77
2019-04-27T15:16:08.560Z,17.65
2019-04-27T15:18:44.624Z,19.48
2019-04-27T15:21:17.393Z,19.25
2019-04-27T15:23:49.647Z,18.67
2019-04-27T15:26:22.918Z,21.82
2019-04-27T15:28:57.962Z,20.52
2019-04-27T15:31:33.966Z,23.18
2019-04-27T15:34:44.613Z,20.32
2019-04-27T15:37:34.042Z,20.12
2019-04-27T15:40:29.859Z,17.45
2019-04-27T15:43:04.663Z,19.55
2019-04-27T15:45:36.581Z,19.35
2019-04-27T15:48:08.469Z,23.80
2019-04-27T15:50:40.044Z,15.83
2019-04-27T15:53:14.268Z,17.87
2019-04-27T15:55:46.738Z,19.42
2019-04-27T15:58:25.057Z,18.02
2019-04-27T16:00:56.561Z,20.08
2019-04-27T16:03:27.867Z,19.42
2019-04-27T16:06:03.361Z,15.83
2019-04-27T16:08:38.168Z,16.40
2019-04-27T16:11:16.302Z,16.82
2019-04-27T16:13:42.915Z,22.15
2019-04-27T16:16:14.473Z,16.97
2019-04-27T16:18:46.062Z,22.17
2019-04-27T16:21:17.796Z,19.63
2019-04-27T16:23:50.944Z,24.33
2019-04-27T16:26:22.459Z,24.07
2019-04-27T16:28:54.077Z,20.70
2019-04-27T16:31:30.210Z,19.70
2019-04-27T16:34:02.605Z,28.87
2019-04-27T16:36:32.313Z,23.80
2019-04-27T16:39:08.354Z,23.30
2019-04-27T16:41:42.182Z,23.57
2019-04-27T16:44:13.793Z,26.00
2019-04-27T16:46:45.196Z,26.23
2019-04-27T16:49:19.930Z,26.00
2019-04-27T16:51:51.304Z,25.00
2019-04-27T16:54:22.973Z,27.73
2019-04-27T16:57:02.617Z,25.67
2019-04-27T16:59:42.322Z,25.20
2019-04-27T17:02:02.290Z,26.63
2019-04-27T17:04:34.091Z,27.27
2019-04-27T17:07:05.594Z,26.07
2019-04-27T17:09:42.124Z,25.67
2019-04-27T17:12:11.984Z,23.23
2019-04-27T17:18:00.058Z,20.77
2019-04-27T17:20:32.139Z,23.87
2019-04-27T17:23:03.671Z,24.60
2019-04-27T17:25:39.791Z,25.57
2019-04-27T17:28:14.497Z,25.50
2019-04-27T17:30:45.573Z,23.87
2019-04-27T17:33:29.731Z,20.60
2019-04-27T17:36:02.904Z,17.03
2019-04-27T17:38:35.039Z,23.23
2019-04-27T17:41:09.412Z,19.13
2019-04-27T17:43:41.610Z,16.47
2019-04-27T17:46:13.188Z,20.40
2019-04-27T17:48:45.221Z,18.17
2019-04-27T17:51:17.325Z,20.50
2019-04-27T17:53:49.975Z,17.70
2019-04-27T17:56:33.330Z,18.27
2019-04-27T17:58:55.791Z,16.00
2019-04-27T18:01:30.181Z,20.43
2019-04-27T18:04:03.105Z,21.10
2019-04-27T18:06:34.657Z,20.47
2019-04-27T18:09:14.617Z,18.23
2019-04-27T18:11:49.960Z,18.83
2019-04-27T18:14:21.086Z,18.13
2019-04-27T18:16:54.001Z,18.93
2019-04-27T18:19:30.658Z,15.03
2019-04-27T18:22:04.441Z,18.50
2019-04-27T18:24:41.333Z,20.87
2019-04-27T18:27:49.633Z,14.43
2019-04-27T18:30:33.753Z,13.70
2019-04-27T18:33:05.074Z,15.53
2019-04-27T18:35:38.725Z,17.03
2019-04-27T18:38:10.607Z,18.77
2019-04-27T18:40:42.916Z,15.27
2019-04-27T18:43:14.402Z,17.17
2019-04-27T18:45:48.642Z,14.50
2019-04-27T18:48:40.247Z,13.80
2019-04-27T18:51:20.707Z,13.07
2019-04-27T18:53:54.368Z,15.47
2019-04-27T18:56:26.447Z,11.43
2019-04-27T18:58:58.075Z,15.00
2019-04-27T19:01:31.203Z,12.77
2019-04-27T19:04:02.617Z,12.17
2019-04-27T19:06:34.141Z,9.67
2019-04-27T19:09:08.383Z,14.27
2019-04-27T19:11:53.441Z,9.83
2019-04-27T19:14:14.610Z,13.07
2019-04-27T19:16:48.421Z,11.57
2019-04-27T19:19:20.951Z,10.77
2019-04-27T19:21:53.414Z,12.70
2019-04-27T19:24:28.146Z,10.97
2019-04-27T19:27:16.215Z,14.37
2019-04-27T19:29:53.795Z,15.83
2019-04-27T19:32:28.146Z,13.33
2019-04-27T19:34:59.667Z,12.93
2019-04-27T19:37:32.099Z,13.33
2019-04-27T19:40:03.771Z,11.83
2019-04-27T19:42:38.646Z,13.43
2019-04-27T19:45:11.021Z,14.50
2019-04-27T19:47:43.340Z,12.73
2019-04-27T19:50:15.229Z,13.10
2019-04-27T19:52:47.264Z,12.97
2019-04-27T19:55:20.469Z,12.57
2019-04-27T19:57:52.828Z,12.17
2019-04-27T20:00:43.486Z,13.83
2019-04-27T20:03:19.292Z,12.10
2019-04-27T20:05:50.839Z,10.27
2019-04-27T20:08:25.753Z,14.10
2019-04-27T20:10:57.179Z,13.93
2019-04-27T20:13:29.537Z,14.10
2019-04-27T20:16:01.034Z,13.13
2019-04-27T20:18:33.501Z,12.33
2019-04-27T20:21:04.902Z,13.27
2019-04-27T20:23:36.809Z,14.43
2019-04-27T20:26:09.467Z,11.77
2019-04-27T20:28:41.451Z,11.67
2019-04-27T20:31:13.319Z,13.77
2019-04-27T20:33:44.855Z,12.53
2019-04-27T20:36:16.693Z,10.73
2019-04-27T20:38:48.450Z,12.97
2019-04-27T20:41:21.919Z,10.93
2019-04-27T20:43:54.752Z,11.77
2019-04-27T20:46:26.165Z,9.43
2019-04-27T20:48:57.841Z,10.30
2019-04-27T20:51:54.264Z,12.60
2019-04-27T20:54:25.959Z,10.50
2019-04-27T20:56:57.446Z,9.67
2019-04-27T20:59:28.904Z,11.33
2019-04-27T21:02:22.205Z,11.23
2019-04-27T21:05:03.509Z,11.67
2019-04-27T21:07:42.820Z,9.83
2019-04-27T21:10:14.882Z,7.87
2019-04-27T21:12:46.289Z,11.27
2019-04-27T21:15:17.920Z,8.73
2019-04-27T21:17:50.809Z,12.43
2019-04-27T21:20:22.820Z,8.60
2019-04-27T21:22:54.207Z,8.40
2019-04-27T21:25:25.738Z,13.20
2019-04-27T21:27:57.164Z,9.10
2019-04-27T21:30:28.663Z,11.80
2019-04-27T21:33:01.130Z,10.00
2019-04-27T21:35:33.184Z,10.40
2019-04-27T21:38:05.754Z,8.13
2019-04-27T21:40:37.622Z,10.07
2019-04-27T21:43:11.342Z,11.33
2019-04-27T21:45:43.278Z,10.63
2019-04-27T21:48:14.705Z,10.23
2019-04-27T21:50:46.428Z,10.17
2019-04-27T21:53:35.721Z,10.37
2019-04-27T21:56:11.154Z,10.63
2019-04-27T21:58:43.180Z,9.17
2019-04-27T22:01:28.112Z,8.90
2019-04-27T22:04:01.038Z,10.57
2019-04-27T22:06:33.609Z,8.90
2019-04-27T22:09:08.574Z,10.80
2019-04-27T22:11:42.471Z,9.17
2019-04-27T22:14:15.013Z,9.70
2019-04-27T22:16:46.510Z,8.47
2019-04-27T22:19:17.893Z,7.47
2019-04-27T22:21:51.953Z,7.23
2019-04-27T22:24:27.915Z,6.90
2019-04-27T22:27:02.095Z,8.07
2019-04-27T22:29:34.548Z,8.70
2019-04-27T22:32:06.181Z,6.93
2019-04-27T22:34:37.728Z,8.23
2019-04-27T22:37:11.109Z,8.57
2019-04-27T22:39:52.797Z,8.77
2019-04-27T22:42:58.377Z,7.90
2019-04-27T22:45:32.478Z,7.30
2019-04-27T22:48:03.946Z,7.33
2019-04-27T22:50:35.322Z,8.53
2019-04-27T22:53:08.422Z,6.80
2019-04-27T22:55:58.892Z,8.57
2019-04-27T22:58:31.064Z,7.10
2019-04-27T23:01:09.921Z,7.90
2019-04-27T23:03:42.313Z,6.90
2019-04-27T23:06:14.435Z,6.90
2019-04-27T23:08:45.873Z,6.93
2019-04-27T23:11:17.978Z,7.93
2019-04-27T23:13:50.600Z,10.33
2019-04-27T23:16:24.804Z,7.73
2019-04-27T23:18:56.239Z,11.40
2019-04-27T23:21:27.848Z,7.67
2019-04-27T23:23:59.320Z,8.20
2019-04-27T23:26:31.226Z,8.33
2019-04-27T23:29:13.058Z,7.33
2019-04-27T23:31:55.865Z,7.27
2019-04-27T23:34:28.926Z,7.90
2019-04-27T23:37:00.331Z,9.00
2019-04-27T23:39:31.788Z,8.10
2019-04-27T23:42:06.840Z,9.63
2019-04-27T23:44:36.416Z,7.90
2019-04-27T23:47:09.585Z,7.63
2019-04-27T23:49:41.796Z,6.20
2019-04-27T23:52:17.863Z,6.83
2019-04-27T23:54:51.165Z,6.77
2019-04-27T23:57:22.543Z,9.20
2019-04-27T23:59:54.427Z,9.17
